Time;durP1;ratioP1;P1;durP2;ratioP2;P2;SDS_P1;SDS_P2;PMS_P1;PMS_P2;Temp;Humidity;BMP_temperature;BMP_pressure;BME280_temperature;BME280_humidity;BME280_pressure;Samples;Min_cycle;Max_cycle;Signal;HPM_P1;HPM_P2
2024/02/27 00:01:57;;;;;;;;;;;;;;;5.46;53.67;94859.28;4956184;28;19926;-76
2024/02/27 00:04:22;;;;;;;;;;;;;;;5.54;54.86;94861.13;4955444;28;19938;-76
2024/02/27 00:06:49;;;;;;;;;;;;;;;5.44;54.86;94869.22;4956440;28;20466;-75
2024/02/27 00:09:18;;;;;;;;;;;;;;;5.58;54.60;94871.16;4955753;28;19977;-75
2024/02/27 00:11:43;;;;;;;;;;;;;;;5.37;52.75;94876.94;4957892;28;19922;-75
2024/02/27 00:14:09;;;;;;;;;;;;;;;5.34;53.52;94872.00;4956874;28;19941;-77
2024/02/27 00:16:34;;;;;;;;;;;;;;;5.53;55.04;94880.56;4970376;28;19926;-75
2024/02/27 00:18:59;;;;;;;;;;;;;;;5.72;54.59;94880.25;4956503;28;20025;-74
2024/02/27 00:21:24;;;;;;;;;;;;;;;5.47;53.96;94885.53;4955610;28;20431;-74
2024/02/27 00:23:50;;;;;;;;;;;;;;;5.42;53.59;94885.22;4954332;28;19956;-76
2024/02/27 00:26:15;;;;;;;;;;;;;;;5.32;54.66;94888.00;4954383;28;19972;-74
2024/02/27 00:28:40;;;;;;;;;;;;;;;5.30;53.45;94876.75;4951464;28;19952;-75
2024/02/27 00:31:05;;;;;;;;;;;;;;;5.34;52.28;94891.28;4971553;28;19938;-74
2024/02/27 00:33:31;;;;;;;;;;;;;;;5.61;54.21;94893.78;4971097;28;20392;-73
2024/02/27 00:35:56;;;;;;;;;;;;;;;5.66;53.06;94895.94;4956756;28;19918;-76
2024/02/27 00:38:21;;;;;;;;;;;;;;;5.42;54.45;94900.22;4955958;28;20096;-76
2024/02/27 00:40:46;;;;;;;;;;;;;;;5.61;53.43;94902.53;4956031;28;20028;-75
2024/02/27 00:43:12;;;;;;;;;;;;;;;5.47;53.61;94900.53;4956376;28;19969;-74
2024/02/27 00:45:37;;;;;;;;;;;;;;;5.63;53.95;94907.66;4956294;28;20257;-74
2024/02/27 00:48:03;;;;;;;;;;;;;;;5.60;53.39;94916.75;4956857;28;19918;-76
2024/02/27 00:50:29;;;;;;;;;;;;;;;5.53;55.25;94915.75;4956309;28;19933;-75
2024/02/27 00:52:54;;;;;;;;;;;;;;;5.46;54.97;94915.56;4943854;28;20397;-77
2024/02/27 00:55:19;;;;;;;;;;;;;;;5.40;53.80;94916.22;4955477;28;19926;-74
2024/02/27 00:57:44;;;;;;;;;;;;;;;5.42;52.63;94923.97;4955682;28;19929;-76
2024/02/27 01:00:12;;;;;;;;;;;;;;;5.51;54.50;94922.19;4953874;28;19961;-75
2024/02/27 01:02:37;;;;;;;;;;;;;;;5.63;54.71;94926.16;4954188;28;19918;-75
2024/02/27 01:05:03;;;;;;;;;;;;;;;5.62;52.46;94929.78;4952605;28;19937;-74
2024/02/27 01:07:29;;;;;;;;;;;;;;;5.71;53.67;94939.34;4954904;28;20384;-75
2024/02/27 01:09:54;;;;;;;;;;;;;;;5.54;55.03;94937.69;4956884;28;19969;-76
2024/02/27 01:12:19;;;;;;;;;;;;;;;5.53;55.53;94938.66;4955028;28;19926;-76
2024/02/27 01:14:44;;;;;;;;;;;;;;;5.67;53.23;94945.94;4954052;28;19930;-76
2024/02/27 01:17:10;;;;;;;;;;;;;;;5.59;53.07;94945.94;4955446;28;19929;-76
2024/02/27 01:19:35;;;;;;;;;;;;;;;5.66;53.29;94939.03;4960631;28;20203;-74
2024/02/27 01:22:00;;;;;;;;;;;;;;;5.58;53.75;94944.31;4966270;28;20292;-74
2024/02/27 01:24:25;;;;;;;;;;;;;;;5.45;52.63;94942.94;4952669;28;19964;-75
2024/02/27 01:26:51;;;;;;;;;;;;;;;5.43;52.58;94944.09;4959855;28;20020;-76
2024/02/27 01:29:16;;;;;;;;;;;;;;;5.59;53.37;94948.59;4952691;28;20032;-76
2024/02/27 01:31:42;;;;;;;;;;;;;;;5.40;53.99;94947.06;4964124;28;19929;-75
2024/02/27 01:34:08;;;;;;;;;;;;;;;5.41;50.96;94941.63;4963457;28;19961;-75
2024/02/27 01:36:33;;;;;;;;;;;;;;;5.37;52.32;94945.56;4961069;28;20628;-76
2024/02/27 01:38:58;;;;;;;;;;;;;;;5.27;54.35;94942.25;4957702;28;20076;-74
2024/02/27 01:41:23;;;;;;;;;;;;;;;5.29;54.36;94940.28;4960501;28;20046;-75
2024/02/27 01:43:49;;;;;;;;;;;;;;;5.39;53.92;94943.59;4965628;28;20016;-73
2024/02/27 01:46:18;;;;;;;;;;;;;;;5.37;51.87;94947.41;4961529;28;19922;-75
2024/02/27 01:48:43;;;;;;;;;;;;;;;5.53;53.67;94957.16;4965144;28;19934;-73
2024/02/27 01:51:09;;;;;;;;;;;;;;;5.39;52.19;94956.81;4953893;28;19977;-74
2024/02/27 01:53:34;;;;;;;;;;;;;;;5.34;52.34;94959.91;4963875;28;19933;-73
2024/02/27 01:55:59;;;;;;;;;;;;;;;5.56;54.11;94962.09;4961496;28;20446;-74
2024/02/27 01:58:25;;;;;;;;;;;;;;;5.58;52.54;94950.38;4970136;28;20441;-74
2024/02/27 02:00:50;;;;;;;;;;;;;;;5.17;54.51;94950.31;4969859;28;19933;-72
2024/02/27 02:03:16;;;;;;;;;;;;;;;5.40;53.10;94944.41;4954616;28;20621;-74
2024/02/27 02:05:41;;;;;;;;;;;;;;;5.28;52.46;94938.63;4970001;28;19934;-74
2024/02/27 02:08:06;;;;;;;;;;;;;;;4.87;49.83;94945.41;4969005;28;20039;-75
2024/02/27 02:10:31;;;;;;;;;;;;;;;5.20;53.32;94949.97;4969649;28;20009;-75
2024/02/27 02:12:57;;;;;;;;;;;;;;;5.14;54.23;94956.72;4961191;28;19969;-74
2024/02/27 02:15:25;;;;;;;;;;;;;;;4.97;52.34;94950.56;4952226;28;19988;-74
2024/02/27 02:17:53;;;;;;;;;;;;;;;5.07;52.63;94948.63;4974653;28;20025;-73
2024/02/27 02:20:18;;;;;;;;;;;;;;;4.99;52.29;94947.75;4962254;28;19929;-74
2024/02/27 02:22:44;;;;;;;;;;;;;;;4.86;54.35;94942.91;4967489;28;19926;-74
2024/02/27 02:25:10;;;;;;;;;;;;;;;4.74;52.22;94947.63;4973473;28;19953;-74
2024/02/27 02:27:36;;;;;;;;;;;;;;;4.83;55.90;94954.63;4972895;28;19924;-74
2024/02/27 02:30:01;;;;;;;;;;;;;;;4.64;54.56;94958.31;4971806;28;20615;-74
2024/02/27 02:32:26;;;;;;;;;;;;;;;4.60;54.29;94962.22;4971120;28;19922;-75
2024/02/27 02:34:51;;;;;;;;;;;;;;;4.51;52.00;94962.19;4971353;28;20320;-74
2024/02/27 02:37:17;;;;;;;;;;;;;;;4.64;53.71;94964.41;4966551;28;20135;-75
2024/02/27 02:39:42;;;;;;;;;;;;;;;4.63;56.28;94959.28;4973695;28;20016;-74
2024/02/27 02:42:07;;;;;;;;;;;;;;;4.73;54.41;94957.34;4959722;28;19995;-75
2024/02/27 02:44:33;;;;;;;;;;;;;;;4.84;52.91;94951.00;4952578;28;19961;-74
2024/02/27 02:46:58;;;;;;;;;;;;;;;4.60;54.63;94957.81;4973725;28;19918;-75
2024/02/27 02:49:23;;;;;;;;;;;;;;;4.68;54.20;94960.47;4957371;28;19922;-72
2024/02/27 02:51:48;;;;;;;;;;;;;;;4.64;54.33;94953.03;4952179;28;20478;-74
2024/02/27 02:54:14;;;;;;;;;;;;;;;4.66;54.99;94957.16;4953823;28;19996;-75
2024/02/27 02:56:39;;;;;;;;;;;;;;;4.55;55.61;94953.00;4952768;28;20019;-74
2024/02/27 02:59:04;;;;;;;;;;;;;;;4.71;55.97;94965.44;4958068;28;19922;-73
2024/02/27 03:01:29;;;;;;;;;;;;;;;4.69;56.40;94964.75;4951622;28;19964;-74
2024/02/27 03:03:55;;;;;;;;;;;;;;;4.58;56.31;94959.75;4951778;28;20548;-74
2024/02/27 03:06:20;;;;;;;;;;;;;;;4.49;53.98;94960.69;4952315;28;20307;-74
2024/02/27 03:08:47;;;;;;;;;;;;;;;4.39;53.95;94966.88;4949210;28;19954;-73
2024/02/27 03:11:16;;;;;;;;;;;;;;;4.78;55.64;94962.16;4955328;28;20541;-74
2024/02/27 03:13:42;;;;;;;;;;;;;;;4.62;57.06;94968.19;4950822;28;20602;-73
2024/02/27 03:16:08;;;;;;;;;;;;;;;4.57;55.53;94964.22;4949835;28;20131;-73
2024/02/27 03:18:33;;;;;;;;;;;;;;;4.64;57.75;94959.13;4945736;28;19949;-74
2024/02/27 03:20:58;;;;;;;;;;;;;;;4.63;55.49;94956.66;4955820;28;20669;-73
2024/02/27 03:23:23;;;;;;;;;;;;;;;4.77;56.14;94961.34;4946213;28;19930;-74
2024/02/27 03:25:49;;;;;;;;;;;;;;;4.63;55.97;94968.00;4957108;28;19981;-73
2024/02/27 03:28:14;;;;;;;;;;;;;;;4.77;56.07;94974.53;4950470;28;19996;-73
2024/02/27 03:30:39;;;;;;;;;;;;;;;4.62;55.67;94970.84;4963357;28;19922;-74
2024/02/27 03:33:04;;;;;;;;;;;;;;;4.51;55.59;94978.00;4944056;28;19926;-73
2024/02/27 03:35:30;;;;;;;;;;;;;;;4.75;56.92;94979.13;4962666;28;19972;-73
2024/02/27 03:37:55;;;;;;;;;;;;;;;4.80;57.16;94982.13;4944041;28;19926;-72
2024/02/27 03:40:20;;;;;;;;;;;;;;;4.82;57.28;94982.78;4955106;28;20458;-73
2024/02/27 03:42:45;;;;;;;;;;;;;;;4.71;55.25;94985.69;4959868;28;20005;-73
2024/02/27 03:45:11;;;;;;;;;;;;;;;4.60;57.73;94981.53;4956950;28;19965;-74
2024/02/27 03:47:36;;;;;;;;;;;;;;;4.44;57.98;94984.88;4957439;28;19922;-75
2024/02/27 03:50:02;;;;;;;;;;;;;;;4.61;57.39;94984.97;4956408;28;19973;-74
2024/02/27 03:52:27;;;;;;;;;;;;;;;4.48;54.90;94988.03;4957133;28;20447;-74
2024/02/27 03:54:53;;;;;;;;;;;;;;;4.38;55.06;94981.06;4957132;28;20184;-73
2024/02/27 03:57:18;;;;;;;;;;;;;;;4.32;56.92;94993.03;4957231;28;20411;-72
2024/02/27 03:59:43;;;;;;;;;;;;;;;4.00;56.29;94990.97;4957385;28;20383;-77
2024/02/27 04:02:08;;;;;;;;;;;;;;;3.99;57.84;94990.16;4956465;28;20663;-78
2024/02/27 04:04:34;;;;;;;;;;;;;;;3.76;59.95;94985.38;4957224;28;19996;-76
2024/02/27 04:06:59;;;;;;;;;;;;;;;3.68;59.78;94995.81;4957923;28;20751;-77
2024/02/27 04:09:24;;;;;;;;;;;;;;;3.77;56.08;94999.34;4959027;28;19961;-75
2024/02/27 04:11:49;;;;;;;;;;;;;;;3.66;55.26;95003.88;4959760;28;19923;-75
2024/02/27 04:14:15;;;;;;;;;;;;;;;3.65;55.53;94999.59;4954968;28;19930;-75
2024/02/27 04:16:40;;;;;;;;;;;;;;;3.70;58.23;95014.09;4955211;28;20396;-75
2024/02/27 04:19:06;;;;;;;;;;;;;;;3.98;56.12;95011.41;4960877;28;19929;-74
2024/02/27 04:21:31;;;;;;;;;;;;;;;3.68;56.41;95007.16;4956134;28;19922;-76
2024/02/27 04:23:56;;;;;;;;;;;;;;;3.79;56.10;95010.56;4957833;28;19918;-74
2024/02/27 04:26:22;;;;;;;;;;;;;;;3.70;55.10;95009.66;4959015;28;19930;-76
2024/02/27 04:28:47;;;;;;;;;;;;;;;3.57;57.10;95017.91;4957031;28;20713;-76
2024/02/27 04:31:12;;;;;;;;;;;;;;;3.65;56.33;95017.19;4956835;28;19992;-75
2024/02/27 04:33:39;;;;;;;;;;;;;;;3.60;54.20;95025.50;4956236;28;19937;-75
2024/02/27 04:36:07;;;;;;;;;;;;;;;3.57;60.21;95023.16;4956554;28;20740;-76
2024/02/27 04:38:32;;;;;;;;;;;;;;;3.73;57.45;95019.88;4956936;28;19937;-75
2024/02/27 04:40:57;;;;;;;;;;;;;;;3.42;56.93;95028.09;4956725;28;19930;-77
2024/02/27 04:43:22;;;;;;;;;;;;;;;3.56;56.41;95021.53;4960820;28;20222;-75
2024/02/27 04:45:48;;;;;;;;;;;;;;;3.49;57.06;95028.34;4956078;28;19928;-74
2024/02/27 04:48:13;;;;;;;;;;;;;;;3.61;56.91;95026.34;4956215;28;19957;-76
2024/02/27 04:50:38;;;;;;;;;;;;;;;3.58;59.44;95027.47;4956293;28;19972;-74
2024/02/27 04:53:03;;;;;;;;;;;;;;;3.63;56.36;95035.75;4959103;28;19977;-75
2024/02/27 04:55:30;;;;;;;;;;;;;;;3.55;57.86;95033.03;4956532;28;19937;-74
2024/02/27 04:57:55;;;;;;;;;;;;;;;3.60;59.21;95033.41;4956353;28;20389;-74
2024/02/27 05:00:21;;;;;;;;;;;;;;;3.51;57.25;95040.38;4956273;28;20247;-77
2024/02/27 05:02:46;;;;;;;;;;;;;;;3.38;58.90;95037.25;4955848;28;19910;-75
2024/02/27 05:05:11;;;;;;;;;;;;;;;3.22;58.66;95037.88;4955895;28;19926;-77
2024/02/27 05:07:37;;;;;;;;;;;;;;;3.13;56.32;95034.34;4956373;28;19922;-75
2024/02/27 05:10:02;;;;;;;;;;;;;;;2.95;58.11;95040.34;4955652;28;20017;-74
2024/02/27 05:12:27;;;;;;;;;;;;;;;2.82;58.83;95045.13;4970167;28;20319;-75
2024/02/27 05:14:53;;;;;;;;;;;;;;;2.85;60.68;95047.44;4953987;28;19934;-75
2024/02/27 05:17:18;;;;;;;;;;;;;;;2.73;62.05;95049.44;4955475;28;19950;-75
2024/02/27 05:19:43;;;;;;;;;;;;;;;2.67;58.15;95055.25;4955489;28;20454;-73
2024/02/27 05:22:08;;;;;;;;;;;;;;;2.50;60.04;95055.00;4974776;28;19960;-72
2024/02/27 05:24:34;;;;;;;;;;;;;;;2.38;58.79;95049.91;4955048;28;19933;-74
2024/02/27 05:26:59;;;;;;;;;;;;;;;2.70;61.57;95047.09;4959066;28;19926;-72
2024/02/27 05:29:24;;;;;;;;;;;;;;;2.39;59.09;95053.38;4953166;28;19933;-74
2024/02/27 05:31:50;;;;;;;;;;;;;;;2.43;60.79;95054.75;4956685;28;20036;-74
2024/02/27 05:34:15;;;;;;;;;;;;;;;2.15;60.43;95059.91;4954447;28;20009;-74
2024/02/27 05:36:40;;;;;;;;;;;;;;;2.22;60.59;95066.22;4955710;28;19937;-74
2024/02/27 05:39:06;;;;;;;;;;;;;;;2.46;61.95;95069.41;4955210;28;20378;-75
2024/02/27 05:41:31;;;;;;;;;;;;;;;2.32;60.09;95074.13;4954839;28;19930;-74
2024/02/27 05:43:56;;;;;;;;;;;;;;;2.48;62.15;95075.34;4955472;28;19926;-75
2024/02/27 05:46:22;;;;;;;;;;;;;;;2.54;60.78;95087.91;4954553;28;19929;-74
2024/02/27 05:48:47;;;;;;;;;;;;;;;2.67;60.91;95086.78;4953345;28;20302;-73
2024/02/27 05:51:12;;;;;;;;;;;;;;;2.67;61.58;95100.78;4954732;28;19934;-73
2024/02/27 05:53:37;;;;;;;;;;;;;;;2.59;61.04;95098.03;4956162;28;19930;-75
2024/02/27 05:56:03;;;;;;;;;;;;;;;2.80;61.23;95108.38;4955333;28;20028;-73
2024/02/27 05:58:28;;;;;;;;;;;;;;;2.69;59.67;95108.53;4954995;28;20600;-72
2024/02/27 06:00:54;;;;;;;;;;;;;;;2.67;61.21;95113.91;4953663;28;19930;-73
2024/02/27 06:03:19;;;;;;;;;;;;;;;2.71;61.73;95111.81;4970181;28;19925;-72
2024/02/27 06:05:45;;;;;;;;;;;;;;;2.71;61.44;95117.06;4969374;28;19966;-75
2024/02/27 06:08:10;;;;;;;;;;;;;;;2.44;60.21;95114.22;4955110;28;19958;-72
2024/02/27 06:10:36;;;;;;;;;;;;;;;2.31;62.58;95116.31;4954904;28;20685;-75
2024/02/27 06:13:01;;;;;;;;;;;;;;;2.84;59.46;95130.78;4951487;28;20463;-73
2024/02/27 06:15:26;;;;;;;;;;;;;;;2.45;59.97;95129.00;4953098;28;19922;-72
2024/02/27 06:17:51;;;;;;;;;;;;;;;2.45;60.90;95130.81;4954563;28;20468;-74
2024/02/27 06:23:01;;;;;;;;;;;;;;;2.81;59.05;95130.22;4954649;28;19929;-74
2024/02/27 06:25:26;;;;;;;;;;;;;;;2.76;59.40;95138.53;4953997;28;19926;-75
2024/02/27 06:27:52;;;;;;;;;;;;;;;2.79;59.69;95143.50;4954572;28;20626;-74
2024/02/27 06:30:17;;;;;;;;;;;;;;;2.96;60.01;95144.56;4954363;28;19968;-75
2024/02/27 06:32:42;;;;;;;;;;;;;;;3.02;60.35;95161.59;4954386;28;19929;-76
2024/02/27 06:35:09;;;;;;;;;;;;;;;3.04;59.06;95163.09;4968806;28;19926;-75
2024/02/27 06:37:34;;;;;;;;;;;;;;;3.17;60.48;95175.94;4954640;28;20539;-76
2024/02/27 06:40:00;;;;;;;;;;;;;;;3.38;57.96;95171.47;4954816;28;20201;-73
2024/02/27 06:42:25;;;;;;;;;;;;;;;3.09;60.84;95185.53;4955020;28;19930;-74
2024/02/27 06:44:50;;;;;;;;;;;;;;;3.43;60.44;95190.28;4956214;28;20001;-77
2024/02/27 06:47:17;;;;;;;;;;;;;;;3.31;58.73;95194.91;4953963;28;20134;-73
2024/02/27 06:49:43;;;;;;;;;;;;;;;3.54;60.16;95194.59;4954721;28;19953;-74
2024/02/27 06:52:08;;;;;;;;;;;;;;;3.66;58.81;95193.44;4955032;28;20482;-76
2024/02/27 06:54:34;;;;;;;;;;;;;;;3.69;59.66;95202.84;4954595;28;19942;-74
2024/02/27 06:56:59;;;;;;;;;;;;;;;3.78;60.33;95201.16;4954228;28;20585;-74
2024/02/27 06:59:24;;;;;;;;;;;;;;;3.65;58.82;95196.19;4954377;28;20060;-74
2024/02/27 07:01:50;;;;;;;;;;;;;;;3.67;60.79;95202.13;4954529;28;19922;-74
2024/02/27 07:04:15;;;;;;;;;;;;;;;3.81;59.20;95198.19;4956058;28;20600;-75
2024/02/27 07:06:41;;;;;;;;;;;;;;;3.77;59.56;95194.19;4958215;28;19922;-74
2024/02/27 07:09:08;;;;;;;;;;;;;;;3.82;59.69;95197.25;4958190;28;19945;-77
2024/02/27 07:11:33;;;;;;;;;;;;;;;3.90;59.30;95192.06;4957878;28;19922;-74
2024/02/27 07:13:59;;;;;;;;;;;;;;;3.67;57.02;95195.06;4955866;28;19936;-76
2024/02/27 07:16:24;;;;;;;;;;;;;;;3.74;58.97;95189.25;4954972;28;19922;-76
2024/02/27 07:18:49;;;;;;;;;;;;;;;3.65;56.58;95197.03;4960023;28;19926;-72
2024/02/27 07:21:15;;;;;;;;;;;;;;;3.78;56.79;95195.88;4955741;28;19970;-65
2024/02/27 07:23:40;;;;;;;;;;;;;;;3.93;57.14;95197.06;4956659;28;19980;-65
2024/02/27 07:26:05;;;;;;;;;;;;;;;4.14;56.98;95195.97;4955916;28;19965;-64
2024/02/27 07:28:31;;;;;;;;;;;;;;;4.27;57.32;95200.03;4955760;28;20001;-64
2024/02/27 07:30:56;;;;;;;;;;;;;;;4.28;56.20;95197.25;4953913;28;19922;-65
2024/02/27 07:33:21;;;;;;;;;;;;;;;4.41;58.16;95196.91;4957160;28;19933;-64
2024/02/27 07:35:47;;;;;;;;;;;;;;;4.50;57.50;95204.88;4956202;28;20541;-64
2024/02/27 07:38:12;;;;;;;;;;;;;;;4.55;55.60;95207.88;4955920;28;20041;-65
2024/02/27 07:40:37;;;;;;;;;;;;;;;4.60;54.47;95204.81;4957138;28;19929;-65
2024/02/27 07:43:02;;;;;;;;;;;;;;;4.74;55.34;95209.56;4963189;28;19952;-64
2024/02/27 07:45:28;;;;;;;;;;;;;;;4.71;56.00;95208.06;4955414;28;20652;-64
2024/02/27 07:47:54;;;;;;;;;;;;;;;4.88;55.92;95202.91;4957448;28;20442;-65
2024/02/27 07:50:19;;;;;;;;;;;;;;;4.83;55.13;95211.28;4956858;28;20354;-65
2024/02/27 07:52:44;;;;;;;;;;;;;;;5.03;53.79;95211.09;4954394;28;19926;-64
2024/02/27 07:55:09;;;;;;;;;;;;;;;5.07;53.79;95211.69;4957294;28;19926;-65
2024/02/27 07:57:35;;;;;;;;;;;;;;;5.18;54.97;95213.25;4956591;28;19926;-65
2024/02/27 08:00:00;;;;;;;;;;;;;;;5.15;53.71;95217.00;4955915;28;20683;-65
2024/02/27 08:02:25;;;;;;;;;;;;;;;5.44;54.77;95217.72;4955430;28;19964;-65
2024/02/27 08:04:51;;;;;;;;;;;;;;;5.46;53.27;95221.00;4949729;28;19965;-65
2024/02/27 08:07:16;;;;;;;;;;;;;;;5.52;52.99;95219.56;4957031;28;19922;-65
2024/02/27 08:09:41;;;;;;;;;;;;;;;5.72;52.22;95220.19;4956421;28;20722;-65
2024/02/27 08:12:06;;;;;;;;;;;;;;;5.83;51.74;95213.78;4956048;28;20199;-65
2024/02/27 08:14:32;;;;;;;;;;;;;;;5.86;51.98;95218.75;4955872;28;20365;-65
2024/02/27 08:17:01;;;;;;;;;;;;;;;5.88;52.46;95235.25;4952735;28;20603;-65
2024/02/27 08:19:26;;;;;;;;;;;;;;;5.94;52.02;95226.72;4955000;28;19926;-65
2024/02/27 08:21:52;;;;;;;;;;;;;;;6.24;49.15;95234.25;4952426;28;19964;-64
2024/02/27 08:24:17;;;;;;;;;;;;;;;6.57;47.82;95229.09;4954615;28;19937;-65
2024/02/27 08:26:45;;;;;;;;;;;;;;;6.68;47.63;95235.06;4954559;28;20560;-65
2024/02/27 08:29:10;;;;;;;;;;;;;;;6.70;47.28;95233.09;4952874;28;20566;-65
2024/02/27 08:31:35;;;;;;;;;;;;;;;6.98;46.83;95236.28;4954607;28;19922;-65
2024/02/27 08:34:04;;;;;;;;;;;;;;;7.12;46.60;95245.38;4954536;28;20499;-65
2024/02/27 08:36:30;;;;;;;;;;;;;;;7.07;46.81;95234.44;4954144;28;20447;-65
2024/02/27 08:38:55;;;;;;;;;;;;;;;7.17;46.38;95239.56;4955649;28;20047;-65
2024/02/27 08:41:21;;;;;;;;;;;;;;;7.40;46.88;95237.09;4955078;28;20537;-64
2024/02/27 08:43:47;;;;;;;;;;;;;;;7.45;45.87;95247.16;4952927;28;19969;-64
2024/02/27 08:46:17;;;;;;;;;;;;;;;7.43;45.14;95246.50;4949575;28;20452;-64
2024/02/27 08:48:42;;;;;;;;;;;;;;;7.45;45.47;95251.66;4946567;28;19926;-65
2024/02/27 08:51:08;;;;;;;;;;;;;;;7.63;45.03;95254.94;4953013;28;21367;-64
2024/02/27 08:53:33;;;;;;;;;;;;;;;7.46;45.59;95253.28;4954663;28;19978;-64
2024/02/27 08:55:59;;;;;;;;;;;;;;;7.60;44.87;95259.72;4950456;28;20464;-64
2024/02/27 08:58:24;;;;;;;;;;;;;;;7.52;45.93;95248.16;4949367;28;19997;-64
2024/02/27 09:00:49;;;;;;;;;;;;;;;7.70;44.70;95249.78;4957079;28;19926;-64
2024/02/27 09:03:15;;;;;;;;;;;;;;;7.59;45.73;95245.66;4953038;28;19932;-64
2024/02/27 09:05:43;;;;;;;;;;;;;;;7.95;44.76;95243.63;4952617;28;20009;-64
2024/02/27 09:08:08;;;;;;;;;;;;;;;7.97;43.90;95231.03;4954876;28;20012;-64
2024/02/27 09:10:33;;;;;;;;;;;;;;;7.86;43.04;95238.31;4955151;28;20863;-64
2024/02/27 09:12:59;;;;;;;;;;;;;;;7.97;43.40;95233.66;4954160;28;19933;-64
2024/02/27 09:15:24;;;;;;;;;;;;;;;8.03;43.40;95240.94;4953822;28;19934;-64
2024/02/27 09:17:49;;;;;;;;;;;;;;;8.09;43.53;95247.41;4954303;28;19988;-64
2024/02/27 09:20:15;;;;;;;;;;;;;;;8.21;43.21;95253.13;4953441;28;19930;-64
2024/02/27 09:22:40;;;;;;;;;;;;;;;8.44;43.02;95255.88;4953098;28;19930;-64
2024/02/27 09:25:06;;;;;;;;;;;;;;;8.56;43.03;95258.94;4954776;28;20510;-64
2024/02/27 09:27:34;;;;;;;;;;;;;;;8.71;42.66;95267.00;4953520;28;20611;-65
2024/02/27 09:29:59;;;;;;;;;;;;;;;8.96;42.29;95264.22;4953836;28;20303;-64
2024/02/27 09:32:24;;;;;;;;;;;;;;;9.17;42.18;95266.22;4953331;28;19933;-64
2024/02/27 09:34:50;;;;;;;;;;;;;;;9.36;42.14;95271.22;4954313;28;20454;-64
2024/02/27 09:37:16;;;;;;;;;;;;;;;9.59;40.82;95273.88;4952799;28;19929;-64
2024/02/27 09:39:41;;;;;;;;;;;;;;;9.83;40.52;95286.06;4959977;28;19918;-64
2024/02/27 09:42:10;;;;;;;;;;;;;;;9.90;41.29;95291.50;4954040;28;19930;-64
2024/02/27 09:44:39;;;;;;;;;;;;;;;9.87;42.10;95288.38;4954654;28;19930;-64
2024/02/27 09:47:05;;;;;;;;;;;;;;;9.60;39.29;95296.78;4952798;28;20798;-64
2024/02/27 09:49:31;;;;;;;;;;;;;;;10.04;39.62;95289.88;4952305;28;19922;-64
2024/02/27 09:51:56;;;;;;;;;;;;;;;9.69;39.71;95285.03;4953438;28;20739;-65
2024/02/27 09:54:21;;;;;;;;;;;;;;;9.87;39.81;95289.22;4964483;28;20619;-65
2024/02/27 09:56:46;;;;;;;;;;;;;;;9.82;39.92;95300.38;4954289;28;19926;-66
2024/02/27 09:59:12;;;;;;;;;;;;;;;9.61;40.28;95300.22;4958514;28;19921;-65
2024/02/27 10:01:37;;;;;;;;;;;;;;;9.94;39.19;95292.81;4952205;28;19930;-65
2024/02/27 10:04:02;;;;;;;;;;;;;;;9.33;38.93;95296.31;4951937;28;19961;-65
2024/02/27 10:06:30;;;;;;;;;;;;;;;9.41;40.00;95290.94;4953647;28;19922;-65
2024/02/27 10:08:56;;;;;;;;;;;;;;;9.56;41.56;95301.59;4964172;28;20025;-65
2024/02/27 10:11:21;;;;;;;;;;;;;;;9.25;40.39;95299.03;4953762;28;19933;-65
2024/02/27 10:13:46;;;;;;;;;;;;;;;9.96;39.45;95295.25;4953516;28;19989;-65
2024/02/27 10:16:12;;;;;;;;;;;;;;;9.97;38.48;95291.59;4952409;28;19937;-64
2024/02/27 10:18:38;;;;;;;;;;;;;;;10.19;38.95;95284.56;4953227;28;19929;-64
2024/02/27 10:21:04;;;;;;;;;;;;;;;10.62;38.57;95288.41;4953585;28;20545;-65
2024/02/27 10:23:29;;;;;;;;;;;;;;;10.51;38.79;95289.72;4953699;28;19934;-64
2024/02/27 10:25:57;;;;;;;;;;;;;;;10.71;38.40;95292.59;4952759;28;19926;-64
2024/02/27 10:28:22;;;;;;;;;;;;;;;10.54;37.48;95294.63;4954186;28;20494;-65
2024/02/27 10:30:48;;;;;;;;;;;;;;;10.99;37.47;95299.84;4953777;28;19922;-64
2024/02/27 10:33:15;;;;;;;;;;;;;;;11.06;36.38;95293.78;4953044;28;20476;-64
2024/02/27 10:35:40;;;;;;;;;;;;;;;10.98;37.03;95300.06;4955859;28;19918;-64
2024/02/27 10:38:15;;;;;;;;;;;;;;;11.35;36.90;95289.38;4954650;28;19926;-65
2024/02/27 10:40:41;;;;;;;;;;;;;;;11.69;36.19;95287.03;4958208;28;19922;-64
2024/02/27 10:43:06;;;;;;;;;;;;;;;11.62;36.20;95293.09;4956297;28;20592;-64
2024/02/27 10:45:34;;;;;;;;;;;;;;;11.60;36.89;95297.78;4954514;28;19926;-64
2024/02/27 10:48:00;;;;;;;;;;;;;;;11.54;39.03;95298.59;4956082;28;19926;-64
2024/02/27 10:50:26;;;;;;;;;;;;;;;11.41;39.86;95296.63;4949348;28;19922;-65
2024/02/27 10:52:51;;;;;;;;;;;;;;;11.69;39.80;95303.81;4970440;28;20024;-64
2024/02/27 10:55:18;;;;;;;;;;;;;;;11.75;39.94;95297.72;4955325;28;19984;-64
2024/02/27 10:57:44;;;;;;;;;;;;;;;11.99;34.85;95302.81;4954554;28;20399;-64
2024/02/27 11:00:10;;;;;;;;;;;;;;;12.01;35.67;95309.59;4956708;28;20025;-65
2024/02/27 11:02:38;;;;;;;;;;;;;;;12.19;38.16;95313.66;4956422;28;19929;-65
2024/02/27 11:05:03;;;;;;;;;;;;;;;12.36;38.58;95318.66;4965646;28;19956;-65
2024/02/27 11:07:28;;;;;;;;;;;;;;;12.64;37.77;95318.63;4957688;28;19926;-64
2024/02/27 11:09:54;;;;;;;;;;;;;;;12.94;36.68;95317.50;4952315;28;20398;-65
2024/02/27 11:12:20;;;;;;;;;;;;;;;13.28;35.25;95314.94;4955640;28;19961;-64
2024/02/27 11:14:45;;;;;;;;;;;;;;;13.07;32.48;95324.78;4952958;28;20037;-65
2024/02/27 11:17:13;;;;;;;;;;;;;;;12.30;33.70;95325.63;4957074;28;19926;-64
2024/02/27 11:19:40;;;;;;;;;;;;;;;13.03;35.47;95315.50;4959817;28;20509;-64
2024/02/27 11:22:05;;;;;;;;;;;;;;;13.49;36.06;95316.63;4958866;28;19937;-65
2024/02/27 11:24:30;;;;;;;;;;;;;;;13.93;32.23;95332.31;4971338;28;20315;-66
2024/02/27 11:26:55;;;;;;;;;;;;;;;14.39;33.86;95330.63;4956725;28;19926;-65
2024/02/27 11:29:20;;;;;;;;;;;;;;;14.41;33.56;95327.75;4955197;28;20016;-65
2024/02/27 11:31:46;;;;;;;;;;;;;;;14.63;33.00;95324.78;4956737;28;20000;-65
2024/02/27 11:34:11;;;;;;;;;;;;;;;14.40;32.30;95326.06;4960890;28;19980;-65
2024/02/27 11:36:37;;;;;;;;;;;;;;;14.25;32.06;95318.28;4957336;28;19926;-65
2024/02/27 11:39:03;;;;;;;;;;;;;;;14.28;32.62;95324.03;4961360;28;19999;-65
2024/02/27 11:41:28;;;;;;;;;;;;;;;14.50;32.60;95321.09;4954787;28;20340;-65
2024/02/27 11:43:53;;;;;;;;;;;;;;;14.62;32.68;95323.13;4964159;28;20016;-65
2024/02/27 11:46:31;;;;;;;;;;;;;;;14.62;32.20;95321.25;4958905;28;20021;-65
2024/02/27 11:48:57;;;;;;;;;;;;;;;14.92;31.61;95328.81;4961221;28;20215;-65
2024/02/27 11:51:25;;;;;;;;;;;;;;;15.18;31.83;95332.41;4967444;28;19921;-65
2024/02/27 11:53:51;;;;;;;;;;;;;;;15.32;31.21;95322.44;4954118;28;19930;-65
2024/02/27 11:56:17;;;;;;;;;;;;;;;15.25;29.79;95324.34;4954886;28;19937;-65
2024/02/27 11:58:46;;;;;;;;;;;;;;;15.38;29.91;95320.75;4956976;28;19930;-65
2024/02/27 12:01:14;;;;;;;;;;;;;;;15.59;30.56;95314.25;4956491;28;20494;-65
2024/02/27 12:03:40;;;;;;;;;;;;;;;15.41;31.31;95320.31;4956490;28;20497;-65
2024/02/27 12:06:07;;;;;;;;;;;;;;;15.46;30.83;95320.50;4955015;28;20024;-65
2024/02/27 12:08:32;;;;;;;;;;;;;;;15.75;30.48;95312.88;4954892;28;20036;-65
2024/02/27 12:10:58;;;;;;;;;;;;;;;15.87;29.59;95310.31;4953521;28;19928;-65
2024/02/27 12:13:24;;;;;;;;;;;;;;;15.85;27.88;95314.25;4954482;28;19926;-65
2024/02/27 12:15:56;;;;;;;;;;;;;;;15.87;29.32;95314.84;4951534;28;19929;-65
2024/02/27 12:18:21;;;;;;;;;;;;;;;15.98;28.50;95314.13;4958136;28;20663;-65
2024/02/27 12:20:50;;;;;;;;;;;;;;;15.93;28.96;95310.47;4957187;28;20020;-65
2024/02/27 12:23:16;;;;;;;;;;;;;;;15.96;26.87;95305.50;4956835;28;19976;-65
2024/02/27 12:25:42;;;;;;;;;;;;;;;16.23;27.28;95305.25;4956380;28;19926;-65
2024/02/27 12:28:08;;;;;;;;;;;;;;;16.24;26.16;95303.38;4953783;28;20182;-65
2024/02/27 12:30:33;;;;;;;;;;;;;;;15.83;26.08;95300.22;4956394;28;19934;-65
2024/02/27 12:32:58;;;;;;;;;;;;;;;16.11;27.56;95302.47;4954187;28;19953;-65
2024/02/27 12:35:23;;;;;;;;;;;;;;;15.47;25.76;95291.81;4958123;28;20005;-66
2024/02/27 12:37:49;;;;;;;;;;;;;;;15.49;27.22;95287.03;4953751;28;19968;-66
2024/02/27 12:40:15;;;;;;;;;;;;;;;15.98;28.75;95287.28;4952911;28;20443;-65
2024/02/27 12:42:44;;;;;;;;;;;;;;;16.59;26.53;95275.13;4955224;28;19957;-65
2024/02/27 12:45:10;;;;;;;;;;;;;;;17.24;25.06;95275.56;4956162;28;19930;-65
2024/02/27 12:47:39;;;;;;;;;;;;;;;17.66;25.08;95282.78;4955083;28;19981;-65
2024/02/27 12:50:05;;;;;;;;;;;;;;;19.18;25.00;95276.91;4955122;28;19932;-65